Time,TemperatureF,DewpointF,PressureIn,WindDirection,WindDirectionDegrees,WindSpeedMPH,WindSpeedGustMPH,Humidity,HourlyPrecipIn,Conditions,Clouds,dailyrainin,SolarRadiationWatts/m^2,SoftwareType,DateUTC
2013-10-23 00:12:00,32.0,18.0,-100.00,SW,232,6.0,10.0,56,0.00,,,0.00,0.000000,,2013-10-23 06:12:00,
2013-10-23 00:22:00,32.0,18.0,-100.00,SW,232,6.0,10.0,56,0.00,,,0.00,0.000000,,2013-10-23 06:22:00,
2013-10-23 00:32:00,32.0,18.0,-100.00,SW,232,6.0,10.0,56,0.00,,,0.00,0.000000,,2013-10-23 06:32:00,
2013-10-23 00:42:00,32.0,18.0,-100.00,SW,232,6.0,10.0,56,0.00,,,0.00,0.000000,,2013-10-23 06:42:00,
2013-10-23 01:12:00,35.0,17.0,-100.00,SW,221,3.0,9.0,48,0.00,,,0.00,0.000000,,2013-10-23 07:12:00,
2013-10-23 01:22:00,35.0,17.0,-100.00,SW,221,3.0,9.0,48,0.00,,,0.00,0.000000,,2013-10-23 07:22:00,
2013-10-23 01:32:00,35.0,17.0,-100.00,SW,221,3.0,9.0,48,0.00,,,0.00,0.000000,,2013-10-23 07:32:00,
2013-10-23 01:42:00,35.0,17.0,-100.00,SW,221,3.0,9.0,48,0.00,,,0.00,0.000000,,2013-10-23 07:42:00,
2013-10-23 02:12:00,32.0,17.0,-100.00,SW,232,4.0,6.0,54,0.00,,,0.00,0.000000,,2013-10-23 08:12:00,
2013-10-23 02:22:00,32.0,17.0,-100.00,SW,232,4.0,6.0,54,0.00,,,0.00,0.000000,,2013-10-23 08:22:00,
2013-10-23 02:32:00,32.0,17.0,-100.00,SW,232,4.0,6.0,54,0.00,,,0.00,0.000000,,2013-10-23 08:32:00,
2013-10-23 02:42:00,32.0,17.0,-100.00,SW,232,4.0,6.0,54,0.00,,,0.00,0.000000,,2013-10-23 08:42:00,
2013-10-23 03:12:00,33.0,19.0,-100.00,NE,38,4.0,6.0,55,0.00,,,0.00,0.000000,,2013-10-23 09:12:00,
2013-10-23 03:22:00,33.0,19.0,-100.00,NE,38,4.0,6.0,55,0.00,,,0.00,0.000000,,2013-10-23 09:22:00,
2013-10-23 03:33:00,33.0,19.0,-100.00,NE,38,4.0,6.0,55,0.00,,,0.00,0.000000,,2013-10-23 09:33:00,
2013-10-23 03:43:00,33.0,19.0,-100.00,NE,38,4.0,6.0,55,0.00,,,0.00,0.000000,,2013-10-23 09:43:00,
2013-10-23 04:12:00,33.0,19.0,-100.00,NE,45,3.0,6.0,57,0.00,,,0.00,0.000000,,2013-10-23 10:12:00,
2013-10-23 04:43:00,33.0,19.0,-100.00,NE,45,3.0,6.0,57,0.00,,,0.00,0.000000,,2013-10-23 10:43:00,
2013-10-23 05:12:00,31.0,19.0,-100.00,SSW,201,0.0,4.0,61,0.00,,,0.00,0.000000,,2013-10-23 11:12:00,
2013-10-23 05:22:00,31.0,19.0,-100.00,SSW,201,0.0,4.0,61,0.00,,,0.00,0.000000,,2013-10-23 11:22:00,
2013-10-23 05:33:00,31.0,19.0,-100.00,SSW,201,0.0,4.0,61,0.00,,,0.00,0.000000,,2013-10-23 11:33:00,
2013-10-23 05:42:00,31.0,19.0,-100.00,SSW,201,0.0,4.0,61,0.00,,,0.00,0.000000,,2013-10-23 11:42:00,
2013-10-23 06:12:00,31.0,18.0,-100.00,WSW,243,2.0,4.0,59,0.00,,,0.00,0.000000,,2013-10-23 12:12:00,
2013-10-23 06:22:00,31.0,18.0,-100.00,WSW,243,2.0,4.0,59,0.00,,,0.00,0.000000,,2013-10-23 12:22:00,
2013-10-23 06:32:00,31.0,18.0,-100.00,WSW,243,2.0,4.0,59,0.00,,,0.00,0.000000,,2013-10-23 12:32:00,
2013-10-23 06:42:00,31.0,18.0,-100.00,WSW,243,2.0,4.0,59,0.00,,,0.00,0.000000,,2013-10-23 12:42:00,
2013-10-23 07:12:00,29.0,19.0,-100.00,NE,55,3.0,5.0,66,0.00,,,0.00,0.000000,,2013-10-23 13:12:00,
2013-10-23 07:42:00,29.0,19.0,-100.00,NE,55,3.0,5.0,66,0.00,,,0.00,0.000000,,2013-10-23 13:42:00,
2013-10-23 08:11:00,29.0,20.0,-100.00,NW,314,0.0,3.0,69,0.00,,,0.00,4.000000,,2013-10-23 14:11:00,
2013-10-23 08:22:00,29.0,20.0,-100.00,NW,314,0.0,3.0,69,0.00,,,0.00,4.000000,,2013-10-23 14:22:00,
2013-10-23 08:32:00,29.0,20.0,-100.00,NW,314,0.0,3.0,69,0.00,,,0.00,4.000000,,2013-10-23 14:32:00,
2013-10-23 08:42:00,29.0,20.0,-100.00,NW,314,0.0,3.0,69,0.00,,,0.00,4.000000,,2013-10-23 14:42:00,
2013-10-23 09:43:00,34.0,20.0,-100.00,NE,52,5.0,7.0,56,0.00,,,0.00,168.000000,,2013-10-23 15:43:00,
2013-10-23 10:23:00,39.0,21.0,-100.00,NE,52,5.0,10.0,48,0.00,,,0.00,400.000000,,2013-10-23 16:23:00,
2013-10-23 10:33:00,39.0,21.0,-100.00,NE,52,5.0,10.0,48,0.00,,,0.00,400.000000,,2013-10-23 16:33:00,
2013-10-23 10:42:00,39.0,21.0,-100.00,NE,52,5.0,10.0,48,0.00,,,0.00,400.000000,,2013-10-23 16:42:00,
2013-10-23 11:12:00,44.0,21.0,-100.00,ENE,59,5.0,8.0,40,0.00,,,0.00,606.000000,,2013-10-23 17:12:00,
2013-10-23 11:22:00,44.0,21.0,-100.00,ENE,59,5.0,8.0,40,0.00,,,0.00,606.000000,,2013-10-23 17:22:00,
2013-10-23 11:33:00,44.0,21.0,-100.00,ENE,59,5.0,8.0,40,0.00,,,0.00,606.000000,,2013-10-23 17:33:00,
2013-10-23 11:44:00,44.0,21.0,-100.00,ENE,59,5.0,8.0,40,0.00,,,0.00,606.000000,,2013-10-23 17:44:00,
2013-10-23 12:12:00,48.0,22.0,-100.00,ENE,63,3.0,9.0,35,0.00,,,0.00,760.000000,,2013-10-23 18:12:00,
2013-10-23 12:22:00,48.0,22.0,-100.00,ENE,63,3.0,9.0,35,0.00,,,0.00,760.000000,,2013-10-23 18:22:00,
2013-10-23 12:32:00,48.0,22.0,-100.00,ENE,63,3.0,9.0,35,0.00,,,0.00,760.000000,,2013-10-23 18:32:00,
2013-10-23 12:41:00,48.0,22.0,-100.00,ENE,63,3.0,9.0,35,0.00,,,0.00,760.000000,,2013-10-23 18:41:00,
2013-10-23 13:42:00,54.0,19.0,-100.00,NE,52,4.0,10.0,25,0.00,,,0.00,847.000000,,2013-10-23 19:42:00,
2013-10-23 14:22:00,58.0,17.0,-100.00,NNE,26,2.0,8.0,20,0.00,,,0.00,860.000000,,2013-10-23 20:22:00,
2013-10-23 14:33:00,58.0,17.0,-100.00,NNE,26,2.0,8.0,20,0.00,,,0.00,860.000000,,2013-10-23 20:33:00,
2013-10-23 14:42:00,58.0,17.0,-100.00,NNE,26,2.0,8.0,20,0.00,,,0.00,860.000000,,2013-10-23 20:42:00,
2013-10-23 15:12:00,59.0,14.0,-100.00,NW,320,2.0,9.0,17,0.00,,,0.00,795.000000,,2013-10-23 21:12:00,
2013-10-23 15:22:00,59.0,14.0,-100.00,NW,320,2.0,9.0,17,0.00,,,0.00,795.000000,,2013-10-23 21:22:00,
2013-10-23 15:34:00,59.0,14.0,-100.00,NW,320,2.0,9.0,17,0.00,,,0.00,795.000000,,2013-10-23 21:34:00,
2013-10-23 15:43:00,59.0,14.0,-100.00,NW,320,2.0,9.0,17,0.00,,,0.00,795.000000,,2013-10-23 21:43:00,
2013-10-23 16:13:00,61.0,14.0,-100.00,WNW,297,5.0,13.0,16,0.00,,,0.00,655.000000,,2013-10-23 22:13:00,
2013-10-23 16:24:00,61.0,14.0,-100.00,WNW,297,5.0,13.0,16,0.00,,,0.00,655.000000,,2013-10-23 22:24:00,
2013-10-23 16:33:00,61.0,14.0,-100.00,WNW,297,5.0,13.0,16,0.00,,,0.00,655.000000,,2013-10-23 22:33:00,
2013-10-23 16:43:00,61.0,14.0,-100.00,WNW,297,5.0,13.0,16,0.00,,,0.00,655.000000,,2013-10-23 22:43:00,
2013-10-23 17:12:00,60.0,11.0,-100.00,NW,318,4.0,12.0,14,0.00,,,0.00,457.000000,,2013-10-23 23:12:00,
2013-10-23 17:22:00,60.0,11.0,-100.00,NW,318,4.0,12.0,14,0.00,,,0.00,457.000000,,2013-10-23 23:22:00,
2013-10-23 17:34:00,60.0,11.0,-100.00,NW,318,4.0,12.0,14,0.00,,,0.00,457.000000,,2013-10-23 23:34:00,
2013-10-23 17:42:00,60.0,11.0,-100.00,NW,318,4.0,12.0,14,0.00,,,0.00,457.000000,,2013-10-23 23:42:00,
2013-10-23 18:12:00,56.0,18.0,-100.00,NW,323,3.0,9.0,22,0.00,,,0.00,220.000000,,2013-10-24 00:12:00,
2013-10-23 18:22:00,56.0,18.0,-100.00,NW,323,3.0,9.0,22,0.00,,,0.00,220.000000,,2013-10-24 00:22:00,
2013-10-23 18:32:00,56.0,18.0,-100.00,NW,323,3.0,9.0,22,0.00,,,0.00,220.000000,,2013-10-24 00:32:00,
2013-10-23 18:42:00,56.0,18.0,-100.00,NW,323,3.0,9.0,22,0.00,,,0.00,220.000000,,2013-10-24 00:42:00,
2013-10-23 19:11:00,47.0,16.0,-100.00,WNW,295,7.0,12.0,28,0.00,,,0.00,6.000000,,2013-10-24 01:11:00,
2013-10-23 19:21:00,47.0,16.0,-100.00,WNW,295,7.0,12.0,28,0.00,,,0.00,6.000000,,2013-10-24 01:21:00,
2013-10-23 19:32:00,47.0,16.0,-100.00,WNW,295,7.0,12.0,28,0.00,,,0.00,6.000000,,2013-10-24 01:32:00,
2013-10-23 19:42:00,47.0,16.0,-100.00,WNW,295,7.0,12.0,28,0.00,,,0.00,6.000000,,2013-10-24 01:42:00,
2013-10-23 20:12:00,45.0,17.0,-100.00,WSW,245,7.0,13.0,32,0.00,,,0.00,0.000000,,2013-10-24 02:12:00,
2013-10-23 20:22:00,45.0,17.0,-100.00,WSW,245,7.0,13.0,32,0.00,,,0.00,0.000000,,2013-10-24 02:22:00,
2013-10-23 20:32:00,45.0,17.0,-100.00,WSW,245,7.0,13.0,32,0.00,,,0.00,0.000000,,2013-10-24 02:32:00,
2013-10-23 20:42:00,45.0,17.0,-100.00,WSW,245,7.0,13.0,32,0.00,,,0.00,0.000000,,2013-10-24 02:42:00,
2013-10-23 21:12:00,42.0,16.0,-100.00,SW,220,6.0,9.0,34,0.00,,,0.00,0.000000,,2013-10-24 03:12:00,
2013-10-23 21:22:00,42.0,16.0,-100.00,SW,220,6.0,9.0,34,0.00,,,0.00,0.000000,,2013-10-24 03:22:00,
2013-10-23 21:34:00,42.0,16.0,-100.00,SW,220,6.0,9.0,34,0.00,,,0.00,0.000000,,2013-10-24 03:34:00,
2013-10-23 21:44:00,42.0,16.0,-100.00,SW,220,6.0,9.0,34,0.00,,,0.00,0.000000,,2013-10-24 03:44:00,
2013-10-23 22:14:00,39.0,14.0,-100.00,SW,222,8.0,10.0,36,0.00,,,0.00,0.000000,,2013-10-24 04:14:00,
2013-10-23 22:24:00,39.0,14.0,-100.00,SW,222,8.0,10.0,36,0.00,,,0.00,0.000000,,2013-10-24 04:24:00,
2013-10-23 22:35:00,39.0,14.0,-100.00,SW,222,8.0,10.0,36,0.00,,,0.00,0.000000,,2013-10-24 04:35:00,
2013-10-23 22:44:00,39.0,14.0,-100.00,SW,222,8.0,10.0,36,0.00,,,0.00,0.000000,,2013-10-24 04:44:00,
2013-10-23 23:13:00,39.0,14.0,-100.00,SW,215,6.0,10.0,36,0.00,,,0.00,0.000000,,2013-10-24 05:13:00,
2013-10-23 23:22:00,39.0,14.0,-100.00,SW,215,6.0,10.0,36,0.00,,,0.00,0.000000,,2013-10-24 05:22:00,
2013-10-23 23:33:00,39.0,14.0,-100.00,SW,215,6.0,10.0,36,0.00,,,0.00,0.000000,,2013-10-24 05:33:00,
2013-10-23 23:42:00,39.0,14.0,-100.00,SW,215,6.0,10.0,36,0.00,,,0.00,0.000000,,2013-10-24 05:42:00,